Time,TemperatureF,DewpointF,PressureIn,WindDirection,WindDirectionDegrees,WindSpeedMPH,WindSpeedGustMPH,Humidity,HourlyPrecipIn,Conditions,Clouds,dailyrainin,SoftwareType,DateUTC
2013-05-27 00:01:00,59.9,48.1,30.21,West,270,0.0,0.0,65,0.00,,,0.00,WUHU21623XXSP,2013-05-27 04:01:00,
2013-05-27 00:06:00,59.7,47.9,30.21,West,270,0.0,0.0,65,0.00,,,0.00,WUHU21623XXSP,2013-05-27 04:06:00,
2013-05-27 00:11:00,59.7,48.3,30.21,West,270,0.0,0.0,66,0.00,,,0.00,WUHU21623XXSP,2013-05-27 04:11:00,
2013-05-27 00:16:00,59.7,48.3,30.21,West,270,0.0,0.0,66,0.00,,,0.00,WUHU21623XXSP,2013-05-27 04:16:00,
2013-05-27 00:21:00,59.7,48.8,30.21,West,270,0.0,0.0,67,0.00,,,0.00,WUHU21623XXSP,2013-05-27 04:21:00,
2013-05-27 00:26:00,59.5,48.2,30.21,West,270,0.0,0.0,66,0.00,,,0.00,WUHU21623XXSP,2013-05-27 04:26:00,
2013-05-27 00:31:00,59.5,48.2,30.21,West,270,0.0,0.0,66,0.00,,,0.00,WUHU21623XXSP,2013-05-27 04:31:00,
2013-05-27 00:36:00,59.5,48.2,30.21,West,270,0.0,0.0,66,0.00,,,0.00,WUHU21623XXSP,2013-05-27 04:36:00,
2013-05-27 00:41:00,59.5,48.2,30.21,West,270,0.0,0.0,66,0.00,,,0.00,WUHU21623XXSP,2013-05-27 04:41:00,
2013-05-27 00:46:00,59.4,48.0,30.20,West,270,0.0,0.0,66,0.00,,,0.00,WUHU21623XXSP,2013-05-27 04:46:00,
2013-05-27 00:51:00,59.4,48.0,30.20,West,270,0.0,0.0,66,0.00,,,0.00,WUHU21623XXSP,2013-05-27 04:51:00,
2013-05-27 00:56:00,59.4,48.0,30.19,West,270,0.0,0.0,66,0.00,,,0.00,WUHU21623XXSP,2013-05-27 04:56:00,
2013-05-27 01:01:00,59.4,48.0,30.19,SW,225,0.0,0.0,66,0.00,,,0.00,WUHU21623XXSP,2013-05-27 05:01:00,
2013-05-27 01:06:00,59.4,48.0,30.19,SW,225,0.0,0.0,66,0.00,,,0.00,WUHU21623XXSP,2013-05-27 05:06:00,
2013-05-27 01:11:00,59.5,47.8,30.19,SSW,202,0.0,0.0,65,0.00,,,0.00,WUHU21623XXSP,2013-05-27 05:11:00,
2013-05-27 01:16:00,59.5,47.8,30.18,SSE,157,0.0,0.0,65,0.00,,,0.00,WUHU21623XXSP,2013-05-27 05:16:00,
2013-05-27 01:21:00,59.7,47.9,30.18,WSW,247,0.0,0.0,65,0.00,,,0.00,WUHU21623XXSP,2013-05-27 05:21:00,
2013-05-27 01:26:00,59.7,47.9,30.18,WSW,247,0.0,0.0,65,0.00,,,0.00,WUHU21623XXSP,2013-05-27 05:26:00,
2013-05-27 01:31:00,59.9,48.1,30.18,WSW,247,0.0,0.0,65,0.00,,,0.00,WUHU21623XXSP,2013-05-27 05:31:00,
2013-05-27 01:36:00,59.9,47.7,30.18,South,180,0.0,0.0,64,0.00,,,0.00,WUHU21623XXSP,2013-05-27 05:36:00,
2013-05-27 01:41:00,59.9,47.7,30.18,South,180,0.0,0.0,64,0.00,,,0.00,WUHU21623XXSP,2013-05-27 05:41:00,
2013-05-27 01:46:00,60.1,47.9,30.18,South,180,0.0,0.0,64,0.00,,,0.00,WUHU21623XXSP,2013-05-27 05:46:00,
2013-05-27 01:51:00,60.1,47.9,30.18,South,180,0.0,0.0,64,0.00,,,0.00,WUHU21623XXSP,2013-05-27 05:51:00,
2013-05-27 01:56:00,60.1,47.9,30.18,South,180,0.0,0.0,64,0.00,,,0.00,WUHU21623XXSP,2013-05-27 05:56:00,
2013-05-27 02:01:00,60.1,47.9,30.18,South,180,0.0,0.0,64,0.00,,,0.00,WUHU21623XXSP,2013-05-27 06:01:00,
2013-05-27 02:06:00,60.1,47.5,30.18,South,180,0.0,0.0,63,0.00,,,0.00,WUHU21623XXSP,2013-05-27 06:06:00,
2013-05-27 02:11:00,60.1,47.5,30.18,South,180,0.0,0.0,63,0.00,,,0.00,WUHU21623XXSP,2013-05-27 06:11:00,
2013-05-27 02:16:00,60.1,47.5,30.18,South,180,0.0,0.0,63,0.00,,,0.00,WUHU21623XXSP,2013-05-27 06:16:00,
2013-05-27 02:21:00,60.3,47.6,30.18,South,180,0.0,0.0,63,0.00,,,0.00,WUHU21623XXSP,2013-05-27 06:21:00,
2013-05-27 02:26:00,60.3,47.6,30.18,South,180,0.0,0.0,63,0.00,,,0.00,WUHU21623XXSP,2013-05-27 06:26:00,
2013-05-27 02:31:00,60.3,47.6,30.17,South,180,0.0,0.0,63,0.00,,,0.00,WUHU21623XXSP,2013-05-27 06:31:00,
2013-05-27 02:36:00,60.3,47.6,30.18,South,180,0.0,0.0,63,0.00,,,0.00,WUHU21623XXSP,2013-05-27 06:36:00,
2013-05-27 02:41:00,60.3,47.2,30.18,South,180,0.0,0.0,62,0.00,,,0.00,WUHU21623XXSP,2013-05-27 06:41:00,
2013-05-27 02:46:00,60.4,47.4,30.18,South,180,0.0,0.0,62,0.00,,,0.00,WUHU21623XXSP,2013-05-27 06:46:00,
2013-05-27 02:51:00,60.4,47.4,30.18,South,180,0.0,0.0,62,0.00,,,0.00,WUHU21623XXSP,2013-05-27 06:51:00,
2013-05-27 02:56:00,60.4,47.8,30.18,South,180,0.0,0.0,63,0.00,,,0.00,WUHU21623XXSP,2013-05-27 06:56:00,
2013-05-27 03:01:00,60.4,47.8,30.18,South,180,0.0,0.0,63,0.00,,,0.00,WUHU21623XXSP,2013-05-27 07:01:00,
2013-05-27 03:10:00,60.4,47.8,30.18,South,180,0.0,0.0,63,0.00,,,0.00,WUHU21623XXSP,2013-05-27 07:10:00,
2013-05-27 03:15:00,59.9,47.7,30.18,South,180,0.0,0.0,64,0.00,,,0.00,WUHU21623XXSP,2013-05-27 07:15:00,
2013-05-27 03:20:00,59.7,47.9,30.18,South,180,0.0,0.0,65,0.00,,,0.00,WUHU21623XXSP,2013-05-27 07:20:00,
2013-05-27 03:25:00,59.4,47.6,30.18,South,180,0.0,0.0,65,0.00,,,0.00,WUHU21623XXSP,2013-05-27 07:25:00,
2013-05-27 03:30:00,59.4,48.0,30.18,South,180,0.0,0.0,66,0.02,,,0.02,WUHU21623XXSP,2013-05-27 07:30:00,
2013-05-27 03:35:00,58.8,47.4,30.18,South,180,0.0,0.0,66,0.02,,,0.02,WUHU21623XXSP,2013-05-27 07:35:00,
2013-05-27 03:40:00,58.1,47.2,30.18,South,180,0.0,0.0,67,0.02,,,0.02,WUHU21623XXSP,2013-05-27 07:40:00,
2013-05-27 03:45:00,57.7,47.2,30.18,South,180,0.0,0.0,68,0.04,,,0.04,WUHU21623XXSP,2013-05-27 07:45:00,
2013-05-27 03:50:00,57.4,46.9,30.18,South,180,0.0,0.0,68,0.04,,,0.04,WUHU21623XXSP,2013-05-27 07:50:00,
2013-05-27 03:55:00,57.0,46.5,30.18,South,180,0.0,0.0,68,0.07,,,0.07,WUHU21623XXSP,2013-05-27 07:55:00,
2013-05-27 04:00:00,57.0,46.9,30.18,South,180,0.0,0.0,69,0.07,,,0.07,WUHU21623XXSP,2013-05-27 08:00:00,
2013-05-27 04:05:00,56.5,46.8,30.18,South,180,0.0,0.0,70,0.07,,,0.07,WUHU21623XXSP,2013-05-27 08:05:00,
2013-05-27 04:09:00,56.3,46.7,30.18,South,180,0.0,0.0,70,0.07,,,0.07,WUHU21623XXSP,2013-05-27 08:09:00,
2013-05-27 04:14:00,55.9,47.0,30.18,South,180,0.0,0.0,72,0.11,,,0.11,WUHU21623XXSP,2013-05-27 08:14:00,
2013-05-27 04:19:00,55.8,46.9,30.18,South,180,0.0,0.0,72,0.13,,,0.13,WUHU21623XXSP,2013-05-27 08:19:00,
2013-05-27 04:24:00,55.4,47.2,30.19,South,180,0.0,0.0,74,0.15,,,0.17,WUHU21623XXSP,2013-05-27 08:24:00,
2013-05-27 04:29:00,55.2,47.0,30.18,South,180,0.0,0.0,74,0.17,,,0.19,WUHU21623XXSP,2013-05-27 08:29:00,
2013-05-27 04:34:00,55.0,47.6,30.18,South,180,0.0,0.0,76,0.21,,,0.23,WUHU21623XXSP,2013-05-27 08:34:00,
2013-05-27 04:39:00,54.7,47.6,30.18,South,180,0.0,0.0,77,0.23,,,0.25,WUHU21623XXSP,2013-05-27 08:39:00,
2013-05-27 04:44:00,54.3,47.6,30.18,South,180,0.0,0.0,78,0.23,,,0.27,WUHU21623XXSP,2013-05-27 08:44:00,
2013-05-27 04:49:00,54.1,47.4,30.17,East,90,0.0,0.0,78,0.23,,,0.27,WUHU21623XXSP,2013-05-27 08:49:00,
2013-05-27 04:54:00,53.8,47.5,30.17,ESE,112,0.0,0.0,79,0.22,,,0.29,WUHU21623XXSP,2013-05-27 08:54:00,
2013-05-27 04:59:00,53.8,47.5,30.17,ESE,112,0.0,0.0,79,0.22,,,0.29,WUHU21623XXSP,2013-05-27 08:59:00,
2013-05-27 05:04:00,53.8,47.5,30.17,ESE,112,0.0,0.0,79,0.22,,,0.29,WUHU21623XXSP,2013-05-27 09:04:00,
2013-05-27 05:09:00,53.2,46.9,30.18,ESE,112,0.4,0.4,79,0.22,,,0.29,WUHU21623XXSP,2013-05-27 09:09:00,
2013-05-27 05:14:00,53.2,46.9,30.18,ESE,112,0.4,0.4,79,0.18,,,0.29,WUHU21623XXSP,2013-05-27 09:14:00,
2013-05-27 05:19:00,53.2,46.9,30.18,ESE,112,0.4,0.4,79,0.16,,,0.29,WUHU21623XXSP,2013-05-27 09:19:00,
2013-05-27 05:22:00,53.2,46.9,30.18,North,0,0.0,0.0,79,0.14,,,0.29,WUHU21623XXSP,2013-05-27 09:22:00,
2013-05-27 05:24:00,53.2,46.9,30.18,North,0,0.0,0.0,79,0.14,,,0.29,WUHU21623XXSP,2013-05-27 09:24:00,
2013-05-27 05:29:00,53.2,46.9,30.18,North,0,0.0,0.0,79,0.14,,,0.29,WUHU21623XXSP,2013-05-27 09:29:00,
2013-05-27 05:34:00,52.2,46.5,30.17,SE,135,1.8,1.8,81,0.06,,,0.29,WUHU21623XXSP,2013-05-27 09:34:00,
2013-05-27 05:39:00,51.6,46.0,30.17,East,90,0.0,1.8,81,0.08,,,0.33,WUHU21623XXSP,2013-05-27 09:39:00,
2013-05-27 05:44:00,51.6,46.0,30.17,East,90,0.0,1.8,81,0.06,,,0.33,WUHU21623XXSP,2013-05-27 09:44:00,
2013-05-27 05:49:00,51.1,45.8,30.17,SE,135,0.0,0.0,82,0.08,,,0.35,WUHU21623XXSP,2013-05-27 09:49:00,
2013-05-27 05:54:00,50.7,45.4,30.17,ESE,112,0.0,0.0,82,0.10,,,0.39,WUHU21623XXSP,2013-05-27 09:54:00,
2013-05-27 05:59:00,50.7,45.4,30.18,SE,135,0.0,0.0,82,0.10,,,0.39,WUHU21623XXSP,2013-05-27 09:59:00,
2013-05-27 06:04:00,50.7,45.4,30.17,SE,135,0.0,0.0,82,0.10,,,0.39,WUHU21623XXSP,2013-05-27 10:04:00,
2013-05-27 06:09:00,50.7,45.4,30.16,ESE,112,0.2,0.2,82,0.10,,,0.39,WUHU21623XXSP,2013-05-27 10:09:00,
2013-05-27 06:14:00,50.7,45.7,30.17,ESE,112,0.2,0.2,83,0.10,,,0.39,WUHU21623XXSP,2013-05-27 10:14:00,
2013-05-27 06:19:00,50.2,45.2,30.18,ESE,112,0.2,0.2,83,0.12,,,0.41,WUHU21623XXSP,2013-05-27 10:19:00,
2013-05-27 06:24:00,50.2,45.2,30.17,ESE,112,0.2,0.2,83,0.12,,,0.41,WUHU21623XXSP,2013-05-27 10:24:00,
2013-05-27 06:29:00,50.2,45.2,30.17,ESE,112,0.2,0.2,83,0.16,,,0.45,WUHU21623XXSP,2013-05-27 10:29:00,
2013-05-27 06:34:00,50.2,45.5,30.18,ESE,112,0.0,0.2,84,0.16,,,0.45,WUHU21623XXSP,2013-05-27 10:34:00,
2013-05-27 06:39:00,49.8,45.1,30.18,SE,135,0.0,0.2,84,0.12,,,0.45,WUHU21623XXSP,2013-05-27 10:39:00,
2013-05-27 06:44:00,49.8,45.1,30.17,ESE,112,0.9,0.9,84,0.20,,,0.53,WUHU21623XXSP,2013-05-27 10:44:00,
2013-05-27 06:49:00,49.8,45.4,30.17,SW,225,0.0,0.9,85,0.18,,,0.53,WUHU21623XXSP,2013-05-27 10:49:00,
2013-05-27 06:54:00,49.6,45.2,30.17,SSW,202,0.0,0.9,85,0.14,,,0.53,WUHU21623XXSP,2013-05-27 10:54:00,
2013-05-27 06:59:00,49.6,45.2,30.17,SE,135,0.0,0.0,85,0.16,,,0.55,WUHU21623XXSP,2013-05-27 10:59:00,
2013-05-27 07:04:00,49.6,45.2,30.17,SE,135,0.0,0.0,85,0.21,,,0.60,WUHU21623XXSP,2013-05-27 11:04:00,
2013-05-27 07:09:00,49.6,45.2,30.17,South,180,0.0,0.0,85,0.25,,,0.64,WUHU21623XXSP,2013-05-27 11:09:00,
2013-05-27 07:14:00,49.6,45.2,30.17,WSW,247,0.0,0.0,85,0.27,,,0.66,WUHU21623XXSP,2013-05-27 11:14:00,
2013-05-27 07:19:00,49.6,45.2,30.17,WSW,247,0.0,0.0,85,0.27,,,0.68,WUHU21623XXSP,2013-05-27 11:19:00,
2013-05-27 07:24:00,49.6,45.2,30.17,ESE,112,3.6,3.6,85,0.23,,,0.68,WUHU21623XXSP,2013-05-27 11:24:00,
2013-05-27 07:29:00,49.6,45.6,30.16,ESE,112,2.9,3.6,86,0.23,,,0.68,WUHU21623XXSP,2013-05-27 11:29:00,
2013-05-27 07:34:00,49.6,45.6,30.17,ESE,112,2.9,2.9,86,0.25,,,0.70,WUHU21623XXSP,2013-05-27 11:34:00,
2013-05-27 07:39:00,49.6,45.6,30.17,SSE,157,0.0,2.9,86,0.25,,,0.70,WUHU21623XXSP,2013-05-27 11:39:00,
2013-05-27 07:44:00,49.6,45.6,30.17,East,90,7.2,7.2,86,0.17,,,0.70,WUHU21623XXSP,2013-05-27 11:44:00,
2013-05-27 07:49:00,49.8,45.7,30.17,ESE,112,0.0,7.2,86,0.17,,,0.70,WUHU21623XXSP,2013-05-27 11:49:00,
2013-05-27 07:54:00,49.8,45.7,30.16,East,90,0.0,0.7,86,0.17,,,0.70,WUHU21623XXSP,2013-05-27 11:54:00,
2013-05-27 07:59:00,49.8,46.0,30.16,East,90,0.0,0.7,87,0.15,,,0.70,WUHU21623XXSP,2013-05-27 11:59:00,
2013-05-27 08:04:00,49.8,46.0,30.16,East,90,0.0,0.0,87,0.10,,,0.70,WUHU21623XXSP,2013-05-27 12:04:00,
2013-05-27 08:09:00,49.8,46.0,30.16,ESE,112,0.0,0.0,87,0.04,,,0.70,WUHU21623XXSP,2013-05-27 12:09:00,
2013-05-27 08:14:00,50.2,46.4,30.16,ESE,112,0.0,0.0,87,0.04,,,0.70,WUHU21623XXSP,2013-05-27 12:14:00,
2013-05-27 08:19:00,50.2,46.4,30.16,SE,135,0.0,0.0,87,0.02,,,0.70,WUHU21623XXSP,2013-05-27 12:19:00,
2013-05-27 08:24:00,50.2,46.4,30.16,ESE,112,0.0,0.0,87,0.02,,,0.70,WUHU21623XXSP,2013-05-27 12:24:00,
2013-05-27 08:29:00,50.2,46.7,30.16,ESE,112,0.0,0.0,88,0.02,,,0.70,WUHU21623XXSP,2013-05-27 12:29:00,
2013-05-27 08:34:00,50.4,46.9,30.16,ESE,112,0.0,0.0,88,0.00,,,0.70,WUHU21623XXSP,2013-05-27 12:34:00,
2013-05-27 08:39:00,50.4,46.9,30.16,ESE,112,0.0,0.0,88,0.00,,,0.70,WUHU21623XXSP,2013-05-27 12:39:00,
2013-05-27 08:44:00,50.5,47.0,30.15,SE,135,0.0,0.0,88,0.00,,,0.70,WUHU21623XXSP,2013-05-27 12:44:00,
2013-05-27 08:49:00,50.5,47.0,30.15,SE,135,0.0,0.0,88,0.00,,,0.70,WUHU21623XXSP,2013-05-27 12:49:00,
2013-05-27 08:54:00,50.5,47.0,30.15,ESE,112,0.0,0.0,88,0.00,,,0.70,WUHU21623XXSP,2013-05-27 12:54:00,
2013-05-27 08:59:00,50.5,47.0,30.14,ESE,112,0.0,0.0,88,0.00,,,0.70,WUHU21623XXSP,2013-05-27 12:59:00,
2013-05-27 09:04:00,50.5,47.0,30.14,ESE,112,0.0,0.0,88,0.00,,,0.70,WUHU21623XXSP,2013-05-27 13:04:00,
2013-05-27 09:09:00,51.6,48.1,30.14,ESE,112,0.0,0.0,88,0.00,,,0.70,WUHU21623XXSP,2013-05-27 13:09:00,
2013-05-27 09:14:00,51.6,48.1,30.14,East,90,1.6,1.6,88,0.00,,,0.70,WUHU21623XXSP,2013-05-27 13:14:00,
2013-05-27 09:19:00,51.8,48.6,30.14,ESE,112,0.0,1.6,89,0.00,,,0.70,WUHU21623XXSP,2013-05-27 13:19:00,
2013-05-27 09:24:00,51.8,48.6,30.14,ESE,112,0.0,0.0,89,0.00,,,0.70,WUHU21623XXSP,2013-05-27 13:24:00,
2013-05-27 09:29:00,52.2,48.7,30.14,ESE,112,0.0,3.1,88,0.00,,,0.70,WUHU21623XXSP,2013-05-27 13:29:00,
2013-05-27 09:34:00,52.3,48.8,30.14,SE,135,0.0,3.1,88,0.00,,,0.70,WUHU21623XXSP,2013-05-27 13:34:00,
2013-05-27 09:39:00,52.3,48.8,30.14,SW,225,1.8,1.8,88,0.00,,,0.70,WUHU21623XXSP,2013-05-27 13:39:00,
2013-05-27 09:44:00,52.7,49.2,30.13,East,90,2.9,2.9,88,0.00,,,0.70,WUHU21623XXSP,2013-05-27 13:44:00,
2013-05-27 09:49:00,52.7,49.2,30.13,ESE,112,4.5,4.5,88,0.00,,,0.70,WUHU21623XXSP,2013-05-27 13:49:00,
2013-05-27 09:54:00,52.7,49.2,30.14,ESE,112,4.5,4.5,88,0.00,,,0.70,WUHU21623XXSP,2013-05-27 13:54:00,
2013-05-27 09:59:00,52.9,49.4,30.13,ESE,112,4.5,4.5,88,0.00,,,0.70,WUHU21623XXSP,2013-05-27 13:59:00,
2013-05-27 10:04:00,52.9,49.4,30.13,East,90,3.4,4.5,88,0.00,,,0.70,WUHU21623XXSP,2013-05-27 14:04:00,
2013-05-27 10:09:00,52.9,49.1,30.13,East,90,1.6,4.5,87,0.00,,,0.70,WUHU21623XXSP,2013-05-27 14:09:00,
2013-05-27 10:14:00,53.2,49.4,30.13,South,180,0.0,4.3,87,0.00,,,0.70,WUHU21623XXSP,2013-05-27 14:14:00,
2013-05-27 10:19:00,53.4,49.6,30.12,SE,135,0.0,1.6,87,0.00,,,0.70,WUHU21623XXSP,2013-05-27 14:19:00,
2013-05-27 10:24:00,53.4,49.6,30.12,ESE,112,1.8,1.8,87,0.00,,,0.70,WUHU21623XXSP,2013-05-27 14:24:00,
2013-05-27 10:29:00,53.8,50.0,30.12,South,180,2.5,2.5,87,0.00,,,0.70,WUHU21623XXSP,2013-05-27 14:29:00,
2013-05-27 10:34:00,54.0,50.1,30.13,ESE,112,2.5,2.5,87,0.00,,,0.70,WUHU21623XXSP,2013-05-27 14:34:00,
2013-05-27 10:39:00,54.1,50.3,30.12,East,90,0.0,2.5,87,0.00,,,0.70,WUHU21623XXSP,2013-05-27 14:39:00,
2013-05-27 10:44:00,54.3,50.5,30.11,SW,225,5.4,5.4,87,0.00,,,0.70,WUHU21623XXSP,2013-05-27 14:44:00,
2013-05-27 10:49:00,54.3,50.2,30.11,SW,225,5.4,5.4,86,0.00,,,0.70,WUHU21623XXSP,2013-05-27 14:49:00,
2013-05-27 10:54:00,54.5,50.4,30.10,SSE,157,5.4,5.4,86,0.00,,,0.70,WUHU21623XXSP,2013-05-27 14:54:00,
2013-05-27 10:59:00,54.7,50.5,30.10,ESE,112,3.1,5.4,86,0.00,,,0.70,WUHU21623XXSP,2013-05-27 14:59:00,
2013-05-27 11:04:00,54.7,50.6,30.10,East,90,3.6,5.4,86,0.00,,,0.70,WUHU21623XXSP,2013-05-27 15:04:00,
2013-05-27 11:09:00,54.4,50.3,30.09,ESE,112,0.0,3.6,86,0.00,,,0.70,WUHU21623XXSP,2013-05-27 15:09:00,
2013-05-27 11:14:00,54.3,49.9,30.09,SE,135,0.0,4.9,85,0.00,,,0.70,WUHU21623XXSP,2013-05-27 15:14:00,
2013-05-27 11:19:00,54.0,49.6,30.09,ESE,112,0.0,4.9,85,0.00,,,0.70,WUHU21623XXSP,2013-05-27 15:19:00,
2013-05-27 11:24:00,53.7,49.3,30.09,ESE,112,0.9,6.9,85,0.00,,,0.70,WUHU21623XXSP,2013-05-27 15:24:00,
2013-05-27 11:29:00,53.8,49.4,30.10,SE,135,3.1,6.9,85,0.00,,,0.70,WUHU21623XXSP,2013-05-27 15:29:00,
2013-05-27 11:34:00,53.5,48.8,30.09,South,180,1.1,3.1,84,0.00,,,0.70,WUHU21623XXSP,2013-05-27 15:34:00,
2013-05-27 11:39:00,53.2,48.5,30.09,ESE,112,2.7,2.7,84,0.00,,,0.70,WUHU21623XXSP,2013-05-27 15:39:00,
2013-05-27 11:44:00,53.2,48.5,30.09,SSE,157,5.1,5.1,84,0.00,,,0.70,WUHU21623XXSP,2013-05-27 15:44:00,
2013-05-27 11:49:00,53.0,48.3,30.08,ESE,112,3.6,5.1,84,0.00,,,0.70,WUHU21623XXSP,2013-05-27 15:49:00,
2013-05-27 11:54:00,53.1,48.4,30.08,ESE,112,0.0,5.1,84,0.00,,,0.70,WUHU21623XXSP,2013-05-27 15:54:00,
2013-05-27 11:59:00,53.3,48.6,30.08,SSE,157,0.0,3.6,84,0.00,,,0.70,WUHU21623XXSP,2013-05-27 15:59:00,
2013-05-27 12:04:00,53.3,48.6,30.08,ESE,123,3.3,6.0,84,0.00,,,0.70,WUHU21623XXSP,2013-05-27 16:04:00,
2013-05-27 12:09:00,53.0,48.3,30.07,SE,135,2.2,6.0,84,0.00,,,0.70,WUHU21623XXSP,2013-05-27 16:09:00,
2013-05-27 12:14:00,53.2,48.2,30.08,SSW,202,1.8,2.2,83,0.00,,,0.70,WUHU21623XXSP,2013-05-27 16:14:00,
2013-05-27 12:19:00,52.9,47.9,30.07,East,90,0.9,2.2,83,0.00,,,0.70,WUHU21623XXSP,2013-05-27 16:19:00,
2013-05-27 12:24:00,52.7,47.7,30.09,WSW,247,2.0,2.0,83,0.00,,,0.70,WUHU21623XXSP,2013-05-27 16:24:00,
2013-05-27 12:29:00,52.5,47.5,30.12,West,270,0.0,2.0,83,0.00,,,0.70,WUHU21623XXSP,2013-05-27 16:29:00,
2013-05-27 12:34:00,52.1,47.1,30.11,South,180,0.0,2.0,83,0.00,,,0.70,WUHU21623XXSP,2013-05-27 16:34:00,
2013-05-27 12:39:00,51.7,46.7,30.11,South,180,0.0,0.0,83,0.04,,,0.74,WUHU21623XXSP,2013-05-27 16:39:00,
2013-05-27 12:44:00,51.3,46.6,30.11,South,180,0.0,0.0,84,0.08,,,0.78,WUHU21623XXSP,2013-05-27 16:44:00,
2013-05-27 12:49:00,51.1,46.4,30.09,ESE,112,1.1,1.1,84,0.08,,,0.78,WUHU21623XXSP,2013-05-27 16:49:00,
2013-05-27 12:54:00,50.6,46.3,30.09,ESE,112,0.0,1.1,85,0.12,,,0.82,WUHU21623XXSP,2013-05-27 16:54:00,
2013-05-27 12:59:00,50.3,45.9,30.09,ENE,67,0.0,1.1,85,0.14,,,0.84,WUHU21623XXSP,2013-05-27 16:59:00,
2013-05-27 13:04:00,50.1,45.8,30.09,ENE,67,0.0,0.0,85,0.14,,,0.84,WUHU21623XXSP,2013-05-27 17:04:00,
2013-05-27 13:09:00,50.0,45.6,30.09,ENE,67,0.0,0.0,85,0.14,,,0.84,WUHU21623XXSP,2013-05-27 17:09:00,
2013-05-27 13:14:00,49.9,45.5,30.08,ENE,67,0.0,0.0,85,0.14,,,0.84,WUHU21623XXSP,2013-05-27 17:14:00,
2013-05-27 13:19:00,49.7,45.4,30.08,ENE,67,0.0,0.0,85,0.14,,,0.84,WUHU21623XXSP,2013-05-27 17:19:00,
2013-05-27 13:22:00,49.7,45.3,30.08,North,0,0.0,0.0,85,0.14,,,0.84,WUHU21623XXSP,2013-05-27 17:22:00,
2013-05-27 13:24:00,49.7,45.3,30.08,ENE,67,0.0,0.0,85,0.14,,,0.84,WUHU21623XXSP,2013-05-27 17:24:00,
2013-05-27 13:29:00,49.7,45.3,30.08,North,0,0.0,0.0,85,0.14,,,0.84,WUHU21623XXSP,2013-05-27 17:29:00,
2013-05-27 13:37:00,49.9,46.2,30.06,SE,135,0.0,0.0,87,0.10,,,0.84,WUHU21623XXSP,2013-05-27 17:37:00,
2013-05-27 13:42:00,49.9,46.1,30.06,SE,135,0.0,0.0,87,0.10,,,0.88,WUHU21623XXSP,2013-05-27 17:42:00,
2013-05-27 13:47:00,50.0,46.3,30.05,ESE,112,0.0,0.0,87,0.10,,,0.88,WUHU21623XXSP,2013-05-27 17:47:00,
2013-05-27 13:52:00,50.0,46.6,30.06,SE,135,0.0,0.0,88,0.10,,,0.92,WUHU21623XXSP,2013-05-27 17:52:00,
2013-05-27 13:57:00,50.0,46.6,30.06,East,90,0.0,0.0,88,0.10,,,0.92,WUHU21623XXSP,2013-05-27 17:57:00,
2013-05-27 14:02:00,50.2,46.8,30.06,ESE,112,0.0,0.0,88,0.08,,,0.92,WUHU21623XXSP,2013-05-27 18:02:00,
2013-05-27 14:07:00,50.2,46.8,30.05,ENE,67,0.0,0.0,88,0.08,,,0.92,WUHU21623XXSP,2013-05-27 18:07:00,
2013-05-27 14:12:00,50.4,47.0,30.05,ENE,67,0.0,0.0,88,0.08,,,0.92,WUHU21623XXSP,2013-05-27 18:12:00,
2013-05-27 14:17:00,50.5,47.3,30.05,SE,135,0.0,0.0,89,0.08,,,0.92,WUHU21623XXSP,2013-05-27 18:17:00,
2013-05-27 14:22:00,50.5,47.4,30.05,SE,135,0.0,0.0,89,0.04,,,0.92,WUHU21623XXSP,2013-05-27 18:22:00,
2013-05-27 14:27:00,50.6,47.4,30.05,SE,135,0.0,0.0,89,0.04,,,0.92,WUHU21623XXSP,2013-05-27 18:27:00,
2013-05-27 14:32:00,50.9,47.7,30.04,ESE,112,0.0,0.0,89,0.04,,,0.92,WUHU21623XXSP,2013-05-27 18:32:00,
2013-05-27 14:37:00,51.1,47.9,30.05,SE,135,0.0,0.0,89,0.04,,,0.92,WUHU21623XXSP,2013-05-27 18:37:00,
2013-05-27 14:42:00,51.2,48.0,30.04,ESE,112,0.0,0.0,89,0.04,,,0.92,WUHU21623XXSP,2013-05-27 18:42:00,
2013-05-27 14:47:00,51.3,48.1,30.04,ESE,112,0.0,0.0,89,0.04,,,0.92,WUHU21623XXSP,2013-05-27 18:47:00,
2013-05-27 14:52:00,51.6,48.5,30.03,ESE,112,0.0,0.0,89,0.00,,,0.92,WUHU21623XXSP,2013-05-27 18:52:00,
2013-05-27 14:57:00,51.8,48.6,30.03,ENE,67,0.0,0.0,89,0.00,,,0.92,WUHU21623XXSP,2013-05-27 18:57:00,
2013-05-27 15:02:00,52.1,48.9,30.03,ENE,67,0.0,0.0,89,0.00,,,0.92,WUHU21623XXSP,2013-05-27 19:02:00,
2013-05-27 15:07:00,52.5,49.3,30.03,ESE,112,1.6,1.6,89,0.00,,,0.92,WUHU21623XXSP,2013-05-27 19:07:00,
2013-05-27 15:12:00,52.7,49.5,30.03,ESE,112,1.6,1.6,89,0.00,,,0.92,WUHU21623XXSP,2013-05-27 19:12:00,
2013-05-27 15:17:00,53.0,49.9,30.03,ESE,112,0.0,1.6,89,0.00,,,0.92,WUHU21623XXSP,2013-05-27 19:17:00,
2013-05-27 15:22:00,53.3,50.1,30.02,ESE,112,0.0,1.6,89,0.00,,,0.92,WUHU21623XXSP,2013-05-27 19:22:00,
2013-05-27 15:27:00,53.5,50.3,30.03,ESE,112,1.1,1.1,89,0.00,,,0.92,WUHU21623XXSP,2013-05-27 19:27:00,
2013-05-27 15:32:00,53.9,50.7,30.02,NNE,22,0.0,1.1,89,0.00,,,0.92,WUHU21623XXSP,2013-05-27 19:32:00,
2013-05-27 15:37:00,54.2,51.0,30.02,ENE,67,0.0,0.0,89,0.00,,,0.92,WUHU21623XXSP,2013-05-27 19:37:00,
2013-05-27 15:42:00,54.4,51.2,30.02,East,90,0.0,0.0,89,0.00,,,0.92,WUHU21623XXSP,2013-05-27 19:42:00,
2013-05-27 15:47:00,54.7,51.4,30.02,SSW,202,0.0,0.0,89,0.00,,,0.92,WUHU21623XXSP,2013-05-27 19:47:00,
2013-05-27 15:52:00,55.3,52.4,30.02,SSW,202,0.0,0.0,90,0.00,,,0.92,WUHU21623XXSP,2013-05-27 19:52:00,
2013-05-27 15:57:00,55.6,52.6,30.01,SSW,202,0.0,0.0,90,0.00,,,0.92,WUHU21623XXSP,2013-05-27 19:57:00,
2013-05-27 16:02:00,56.0,53.1,30.01,SSE,157,0.0,0.0,90,0.00,,,0.92,WUHU21623XXSP,2013-05-27 20:02:00,
2013-05-27 16:07:00,56.4,53.5,30.01,SE,135,0.0,0.0,90,0.00,,,0.92,WUHU21623XXSP,2013-05-27 20:07:00,
2013-05-27 16:12:00,56.9,53.9,30.00,SE,135,0.0,0.0,90,0.00,,,0.92,WUHU21623XXSP,2013-05-27 20:12:00,
2013-05-27 16:17:00,57.2,54.2,30.00,SE,135,0.0,0.0,90,0.00,,,0.92,WUHU21623XXSP,2013-05-27 20:17:00,
2013-05-27 16:22:00,57.6,54.7,29.99,SE,135,0.0,0.0,90,0.00,,,0.92,WUHU21623XXSP,2013-05-27 20:22:00,
2013-05-27 16:27:00,57.9,55.0,29.99,SE,135,0.0,0.0,90,0.02,,,0.94,WUHU21623XXSP,2013-05-27 20:27:00,
2013-05-27 16:32:00,58.2,55.3,29.99,SE,135,0.0,0.0,90,0.02,,,0.94,WUHU21623XXSP,2013-05-27 20:32:00,
2013-05-27 16:37:00,58.7,55.8,29.99,SE,135,0.0,0.0,90,0.02,,,0.94,WUHU21623XXSP,2013-05-27 20:37:00,
2013-05-27 16:42:00,59.0,56.1,29.98,SE,135,0.0,0.0,90,0.02,,,0.94,WUHU21623XXSP,2013-05-27 20:42:00,
2013-05-27 16:47:00,59.3,56.4,29.98,ESE,112,0.0,0.0,90,0.02,,,0.94,WUHU21623XXSP,2013-05-27 20:47:00,
2013-05-27 16:52:00,59.6,56.7,29.98,ENE,67,0.0,0.0,90,0.04,,,0.96,WUHU21623XXSP,2013-05-27 20:52:00,
2013-05-27 16:57:00,59.9,57.0,29.98,North,0,0.0,0.0,90,0.04,,,0.96,WUHU21623XXSP,2013-05-27 20:57:00,
2013-05-27 17:02:00,60.1,57.2,29.98,NE,45,0.0,0.0,90,0.04,,,0.96,WUHU21623XXSP,2013-05-27 21:02:00,
2013-05-27 17:07:00,60.1,57.2,29.98,NE,45,0.0,0.0,90,0.06,,,0.98,WUHU21623XXSP,2013-05-27 21:07:00,
2013-05-27 17:12:00,60.1,57.2,29.98,NNE,22,0.0,0.0,90,0.06,,,0.98,WUHU21623XXSP,2013-05-27 21:12:00,
2013-05-27 17:17:00,60.1,57.2,29.97,NNE,22,0.0,0.0,90,0.08,,,1.00,WUHU21623XXSP,2013-05-27 21:17:00,
2013-05-27 17:22:00,60.1,57.2,29.98,NNE,22,0.0,0.0,90,0.08,,,1.00,WUHU21623XXSP,2013-05-27 21:22:00,
2013-05-27 17:27:00,60.1,57.2,29.97,ENE,67,0.0,0.0,90,0.06,,,1.00,WUHU21623XXSP,2013-05-27 21:27:00,
2013-05-27 17:32:00,60.1,57.2,29.97,ENE,67,0.0,0.0,90,0.06,,,1.00,WUHU21623XXSP,2013-05-27 21:32:00,
2013-05-27 17:37:00,60.4,57.6,29.97,ESE,112,0.0,0.0,90,0.06,,,1.00,WUHU21623XXSP,2013-05-27 21:37:00,
2013-05-27 17:42:00,60.6,57.7,29.97,ESE,112,0.0,0.0,90,0.06,,,1.00,WUHU21623XXSP,2013-05-27 21:42:00,
2013-05-27 17:47:00,60.6,57.7,29.96,ESE,112,0.0,0.0,90,0.06,,,1.00,WUHU21623XXSP,2013-05-27 21:47:00,
2013-05-27 17:52:00,61.0,58.4,29.97,ESE,112,0.0,0.0,91,0.04,,,1.00,WUHU21623XXSP,2013-05-27 21:52:00,
2013-05-27 17:57:00,61.0,58.4,29.96,East,90,0.0,0.0,91,0.04,,,1.00,WUHU21623XXSP,2013-05-27 21:57:00,
2013-05-27 18:02:00,61.2,58.6,29.96,East,90,0.0,0.0,91,0.04,,,1.00,WUHU21623XXSP,2013-05-27 22:02:00,
2013-05-27 18:07:00,61.5,58.9,29.95,ESE,112,0.0,0.0,91,0.02,,,1.00,WUHU21623XXSP,2013-05-27 22:07:00,
2013-05-27 18:12:00,61.7,59.1,29.95,ESE,112,0.0,0.0,91,0.02,,,1.00,WUHU21623XXSP,2013-05-27 22:12:00,
2013-05-27 18:17:00,61.9,59.3,29.95,ESE,112,0.0,0.0,91,0.00,,,1.00,WUHU21623XXSP,2013-05-27 22:17:00,
2013-05-27 18:22:00,62.1,59.5,29.95,SE,135,0.0,0.0,91,0.00,,,1.00,WUHU21623XXSP,2013-05-27 22:22:00,
2013-05-27 18:27:00,62.4,59.8,29.94,SE,135,0.0,0.0,91,0.00,,,1.00,WUHU21623XXSP,2013-05-27 22:27:00,
2013-05-27 18:32:00,62.4,59.8,29.95,SE,135,0.0,0.0,91,0.00,,,1.00,WUHU21623XXSP,2013-05-27 22:32:00,
2013-05-27 18:37:00,62.6,60.0,29.95,SE,135,0.0,0.0,91,0.00,,,1.00,WUHU21623XXSP,2013-05-27 22:37:00,
2013-05-27 18:42:00,62.6,60.0,29.94,ESE,112,1.1,1.1,91,0.00,,,1.00,WUHU21623XXSP,2013-05-27 22:42:00,
2013-05-27 18:47:00,62.6,60.0,29.94,ESE,112,1.1,1.1,91,0.00,,,1.00,WUHU21623XXSP,2013-05-27 22:47:00,
2013-05-27 18:52:00,62.6,60.0,29.94,SE,135,0.0,1.1,91,0.00,,,1.00,WUHU21623XXSP,2013-05-27 22:52:00,
2013-05-27 18:57:00,62.6,60.0,29.94,SE,135,0.0,0.0,91,0.00,,,1.00,WUHU21623XXSP,2013-05-27 22:57:00,
2013-05-27 19:02:00,62.6,60.0,29.95,SSW,202,0.0,0.0,91,0.00,,,1.00,WUHU21623XXSP,2013-05-27 23:02:00,
2013-05-27 19:07:00,62.4,59.8,29.95,South,180,0.0,0.0,91,0.00,,,1.00,WUHU21623XXSP,2013-05-27 23:07:00,
2013-05-27 19:12:00,62.4,59.8,29.94,South,180,0.0,0.0,91,0.00,,,1.00,WUHU21623XXSP,2013-05-27 23:12:00,
2013-05-27 19:17:00,62.4,59.8,29.95,South,180,0.0,0.0,91,0.00,,,1.00,WUHU21623XXSP,2013-05-27 23:17:00,
2013-05-27 19:22:00,62.4,59.8,29.95,South,180,0.0,0.0,91,0.00,,,1.00,WUHU21623XXSP,2013-05-27 23:22:00,
2013-05-27 19:26:00,62.4,59.8,29.95,North,0,0.0,0.0,91,0.00,,,1.00,WUHU21623XXSP,2013-05-27 23:26:00,
2013-05-27 19:27:00,62.4,59.8,29.95,South,180,0.0,0.0,91,0.00,,,1.00,WUHU21623XXSP,2013-05-27 23:27:00,
2013-05-27 19:32:00,62.4,59.8,29.95,North,0,0.0,0.0,91,0.00,,,1.00,WUHU21623XXSP,2013-05-27 23:32:00,
2013-05-27 19:48:00,62.4,59.8,29.95,North,0,0.0,0.0,91,0.00,,,1.00,WUHU21623XXSP,2013-05-27 23:48:00,
2013-05-27 19:53:00,62.4,59.8,29.95,North,0,0.0,0.0,91,0.00,,,1.00,WUHU21623XXSP,2013-05-27 23:53:00,
2013-05-27 19:58:00,62.4,59.8,29.95,North,0,0.0,0.0,91,0.00,,,1.00,WUHU21623XXSP,2013-05-27 23:58:00,
2013-05-27 20:00:00,62.4,59.8,29.95,North,0,0.0,0.0,91,0.00,,,1.00,WUHU21623XXSP,2013-05-28 00:00:00,
2013-05-27 20:03:00,62.4,59.8,29.95,North,0,0.0,0.0,91,0.00,,,1.00,WUHU21623XXSP,2013-05-28 00:03:00,
2013-05-27 20:08:00,62.4,59.8,29.95,North,0,0.0,0.0,91,0.00,,,1.00,WUHU21623XXSP,2013-05-28 00:08:00,
2013-05-27 20:32:00,62.2,59.6,29.94,North,0,0.0,0.0,91,0.00,,,1.00,WUHU21623XXSP,2013-05-28 00:32:00,
2013-05-27 20:37:00,62.2,59.6,29.94,North,0,0.0,0.0,91,0.19,,,1.19,WUHU21623XXSP,2013-05-28 00:37:00,
2013-05-27 20:42:00,62.2,59.6,29.94,ESE,112,0.0,0.0,91,0.19,,,1.19,WUHU21623XXSP,2013-05-28 00:42:00,
2013-05-27 20:47:00,62.2,59.6,29.94,ESE,112,0.0,0.0,91,0.19,,,1.19,WUHU21623XXSP,2013-05-28 00:47:00,
2013-05-27 20:51:00,62.2,59.6,29.94,North,0,0.0,0.0,91,0.19,,,1.19,WUHU21623XXSP,2013-05-28 00:51:00,
2013-05-27 20:52:00,62.2,59.6,29.94,ESE,112,0.0,0.0,91,0.19,,,1.19,WUHU21623XXSP,2013-05-28 00:52:00,
2013-05-27 20:57:00,62.2,59.6,29.94,ESE,112,0.0,0.0,91,0.19,,,1.19,WUHU21623XXSP,2013-05-28 00:57:00,